createdAt,value
2019-01-05T16:51:11.340Z,75.82
2019-01-05T16:57:34.605Z,75.73
2019-01-05T17:04:02.243Z,75.70
2019-01-05T17:10:42.175Z,75.67
2019-01-05T17:17:12.938Z,75.73
2019-01-05T17:23:37.552Z,75.83
2019-01-05T17:30:02.279Z,75.93
2019-01-05T17:36:41.795Z,75.84
2019-01-05T17:43:12.295Z,75.97
2019-01-05T17:49:39.698Z,75.93
2019-01-05T17:56:19.680Z,76.13
2019-01-05T18:02:49.976Z,76.17
2019-01-05T18:09:26.631Z,76.01
2019-01-05T18:15:48.496Z,76.21
2019-01-05T18:22:13.226Z,76.11
2019-01-05T18:28:45.917Z,76.09
2019-01-05T18:35:28.468Z,76.14
2019-01-05T18:41:56.122Z,76.28
2019-01-05T18:48:31.129Z,76.17
2019-01-05T18:54:54.183Z,76.04
2019-01-05T19:01:19.451Z,75.97
2019-01-05T19:07:50.045Z,75.99
2019-01-05T19:14:20.656Z,75.99
2019-01-05T19:20:47.858Z,76.05
2019-01-05T19:27:16.151Z,76.16
2019-01-05T19:33:39.364Z,76.18
2019-01-05T19:40:13.331Z,76.24
2019-01-05T19:46:55.917Z,76.33
2019-01-05T19:53:35.546Z,76.51
2019-01-05T19:59:58.925Z,76.55
2019-01-05T20:06:23.720Z,76.55
2019-01-05T20:12:54.620Z,76.83
2019-01-05T20:19:19.286Z,76.89
2019-01-05T20:25:47.132Z,76.61
2019-01-05T20:32:11.745Z,76.78
2019-01-05T20:38:35.270Z,76.75
2019-01-05T20:45:05.537Z,76.63
2019-01-05T20:51:33.095Z,76.50
2019-01-05T20:58:04.437Z,76.54
2019-01-05T21:04:25.160Z,76.38
2019-01-05T21:10:57.299Z,76.68
2019-01-05T21:17:39.795Z,76.49
2019-01-05T21:24:13.394Z,76.43
2019-01-05T21:30:36.489Z,76.47
2019-01-05T21:36:59.856Z,76.37
2019-01-05T21:43:27.526Z,76.17
2019-01-05T21:49:55.168Z,76.11
2019-01-05T21:56:19.747Z,76.20
2019-01-05T22:02:43.383Z,76.25
2019-01-05T22:09:16.902Z,76.08
2019-01-05T22:15:59.722Z,76.13
2019-01-05T22:22:31.191Z,76.21
2019-01-05T22:29:03.064Z,75.94
2019-01-05T22:35:20.568Z,75.50
2019-01-05T22:41:43.681Z,75.31
2019-01-05T22:48:07.249Z,75.00
2019-01-05T22:54:29.425Z,74.96
2019-01-05T23:01:02.878Z,75.06
2019-01-05T23:07:42.876Z,74.59
2019-01-05T23:14:10.498Z,74.58
2019-01-05T23:20:34.080Z,74.37
2019-01-05T23:26:57.415Z,74.29
2019-01-05T23:33:22.463Z,74.04
2019-01-05T23:39:45.959Z,73.92
2019-01-05T23:46:16.520Z,73.82
2019-01-05T23:52:40.146Z,73.51
2019-01-05T23:59:03.504Z,73.59
